Time;durP1;ratioP1;P1;durP2;ratioP2;P2;SDS_P1;SDS_P2;PMS_P1;PMS_P2;Temp;Humidity;BMP_temperature;BMP_pressure;BME280_temperature;BME280_humidity;BME280_pressure;Samples;Min_cycle;Max_cycle;Signal;HPM_P1;HPM_P2
2022/01/05 00:00:07;;;;;;;27.10;25.40;;;2.50;99.90;;;;;;5042296;28;20459;-72
2022/01/05 00:02:35;;;;;;;26.13;24.27;;;2.60;99.90;;;;;;5042048;28;20467;-72
2022/01/05 00:05:02;;;;;;;26.60;25.07;;;2.60;99.90;;;;;;5039838;28;20473;-72
2022/01/05 00:07:29;;;;;;;26.00;24.50;;;2.70;99.90;;;;;;5040711;28;20472;-72
2022/01/05 00:09:56;;;;;;;29.17;26.87;;;2.60;99.90;;;;;;5045505;28;20455;-72
2022/01/05 00:12:24;;;;;;;32.33;29.50;;;2.70;99.90;;;;;;5040880;28;20464;-72
2022/01/05 00:14:51;;;;;;;32.20;29.63;;;2.80;99.90;;;;;;5044068;28;20460;-71
2022/01/05 00:17:18;;;;;;;33.47;30.40;;;2.80;99.90;;;;;;5039907;28;20483;-71
2022/01/05 00:19:45;;;;;;;31.40;29.10;;;2.90;99.90;;;;;;5036413;28;20468;-72
2022/01/05 00:22:12;;;;;;;31.67;29.07;;;2.80;99.90;;;;;;5041969;28;20962;-71
2022/01/05 00:24:41;;;;;;;32.77;30.00;;;2.90;99.90;;;;;;5040701;28;20461;-72
2022/01/05 00:27:09;;;;;;;34.30;32.00;;;2.90;99.90;;;;;;5045483;28;20465;-72
2022/01/05 00:29:37;;;;;;;33.37;31.17;;;2.90;99.90;;;;;;5043131;28;20492;-72
2022/01/05 00:32:05;;;;;;;32.87;30.60;;;2.90;99.90;;;;;;5044676;28;20460;-72
2022/01/05 00:34:31;;;;;;;31.20;29.23;;;2.80;99.90;;;;;;5037495;28;20495;-72
2022/01/05 00:36:58;;;;;;;33.77;30.80;;;2.80;99.90;;;;;;5039739;28;20915;-72
2022/01/05 00:39:25;;;;;;;33.63;31.00;;;2.80;99.90;;;;;;5041309;28;21072;-72
2022/01/05 00:41:52;;;;;;;34.23;31.40;;;2.80;99.90;;;;;;5043040;28;20559;-72
2022/01/05 00:44:19;;;;;;;35.10;32.30;;;2.80;99.90;;;;;;5039517;28;20472;-72
2022/01/05 00:46:48;;;;;;;33.73;31.43;;;2.90;99.90;;;;;;5041910;28;20541;-71
2022/01/05 00:49:15;;;;;;;35.00;32.40;;;2.90;99.90;;;;;;5037556;28;20970;-72
2022/01/05 00:51:42;;;;;;;34.57;32.07;;;2.90;99.90;;;;;;5036922;28;20492;-71
2022/01/05 00:54:09;;;;;;;35.10;32.50;;;2.90;99.90;;;;;;5042725;28;20491;-71
2022/01/05 00:56:36;;;;;;;34.27;31.87;;;2.90;99.90;;;;;;5034235;28;20972;-71
2022/01/05 00:59:03;;;;;;;33.27;31.10;;;2.90;99.90;;;;;;5040344;28;20471;-71
2022/01/05 01:01:30;;;;;;;32.40;29.83;;;2.80;99.90;;;;;;5044324;28;21041;-71
2022/01/05 01:03:58;;;;;;;35.50;32.80;;;2.80;99.90;;;;;;5041593;28;20461;-73
2022/01/05 01:06:25;;;;;;;34.00;30.97;;;2.90;99.90;;;;;;5043867;28;20468;-71
2022/01/05 01:08:52;;;;;;;33.37;30.63;;;2.90;99.90;;;;;;5033701;28;20492;-72
2022/01/05 01:11:19;;;;;;;35.17;32.70;;;2.80;99.90;;;;;;5038928;28;20962;-70
2022/01/05 01:13:47;;;;;;;33.63;30.87;;;2.90;99.90;;;;;;5042459;28;20866;-71
2022/01/05 01:16:13;;;;;;;34.50;31.80;;;2.90;99.90;;;;;;5042979;28;20470;-71
2022/01/05 01:18:40;;;;;;;37.60;33.90;;;2.80;99.90;;;;;;5040461;28;20471;-72
2022/01/05 01:21:09;;;;;;;35.93;33.17;;;2.90;99.90;;;;;;5039746;28;20476;-71
2022/01/05 01:23:37;;;;;;;34.37;31.57;;;2.80;99.90;;;;;;5040547;28;20837;-71
2022/01/05 01:26:04;;;;;;;32.30;29.70;;;2.80;99.90;;;;;;5036602;28;20479;-70
2022/01/05 01:28:31;;;;;;;36.77;33.87;;;2.70;99.90;;;;;;5039286;28;20467;-71
2022/01/05 01:30:58;;;;;;;35.80;32.80;;;2.80;99.90;;;;;;5034743;28;20468;-71
2022/01/05 01:33:25;;;;;;;35.50;32.53;;;2.70;99.90;;;;;;5041228;28;22490;-70
2022/01/05 01:35:52;;;;;;;37.40;33.97;;;2.70;99.90;;;;;;5044061;28;20464;-71
2022/01/05 01:38:20;;;;;;;37.60;34.27;;;2.70;99.90;;;;;;5039654;28;20474;-72
2022/01/05 01:40:47;;;;;;;37.10;33.97;;;2.80;99.90;;;;;;5038827;28;20460;-70
2022/01/05 01:43:15;;;;;;;38.13;34.33;;;2.70;99.90;;;;;;5038955;28;20515;-70
2022/01/05 01:45:42;;;;;;;38.47;34.97;;;2.80;99.90;;;;;;5040985;28;20495;-72
2022/01/05 01:48:09;;;;;;;41.57;35.37;;;2.70;99.90;;;;;;5040214;28;20952;-71
2022/01/05 01:50:36;;;;;;;37.90;34.83;;;2.70;99.90;;;;;;5039621;28;20979;-71
2022/01/05 01:53:03;;;;;;;38.30;34.40;;;2.60;99.90;;;;;;5039683;28;20483;-71
2022/01/05 01:55:31;;;;;;;36.70;33.17;;;2.70;99.90;;;;;;5039530;28;20498;-70
2022/01/05 01:58:00;;;;;;;37.67;34.60;;;2.60;99.90;;;;;;5033228;28;20958;-72
2022/01/05 02:00:29;;;;;;;34.90;31.90;;;2.60;99.90;;;;;;5039127;28;20469;-72
2022/01/05 02:02:57;;;;;;;35.30;32.60;;;2.60;99.90;;;;;;5040517;28;20829;-71
2022/01/05 02:05:24;;;;;;;32.87;30.40;;;2.50;99.90;;;;;;5041328;28;20489;-72
2022/01/05 02:07:51;;;;;;;37.30;34.00;;;2.50;99.90;;;;;;5038669;28;20459;-71
2022/01/05 02:10:19;;;;;;;35.03;31.80;;;2.50;99.90;;;;;;5040134;28;20490;-71
2022/01/05 02:12:48;;;;;;;30.23;28.03;;;2.40;99.90;;;;;;5041031;28;20898;-72
2022/01/05 02:15:15;;;;;;;33.80;31.10;;;2.40;99.90;;;;;;5038976;28;20531;-71
2022/01/05 02:17:54;;;;;;;33.20;30.60;;;2.40;99.90;;;;;;5040211;28;20479;-72
2022/01/05 02:20:24;;;;;;;34.80;31.20;;;2.40;99.90;;;;;;5040902;28;20496;-70
2022/01/05 02:22:54;;;;;;;33.07;30.63;;;2.30;99.90;;;;;;5037774;28;20478;-70
2022/01/05 02:25:21;;;;;;;34.70;31.53;;;2.30;99.90;;;;;;5038185;28;20465;-71
2022/01/05 02:27:50;;;;;;;32.93;30.40;;;2.30;99.90;;;;;;5042813;28;20472;-71
2022/01/05 02:30:20;;;;;;;37.47;33.70;;;2.30;99.90;;;;;;5038186;28;20582;-71
2022/01/05 02:32:48;;;;;;;33.77;31.07;;;2.20;99.90;;;;;;5044784;28;20463;-71
2022/01/05 02:35:15;;;;;;;32.20;29.67;;;2.20;99.90;;;;;;5035742;28;21035;-72
2022/01/05 02:37:43;;;;;;;32.97;30.43;;;2.20;99.90;;;;;;5036484;28;21110;-72
2022/01/05 02:40:14;;;;;;;33.70;31.03;;;2.10;99.90;;;;;;5037823;28;20473;-71
2022/01/05 02:42:42;;;;;;;33.30;30.33;;;2.10;99.90;;;;;;5040386;28;20784;-71
2022/01/05 02:45:10;;;;;;;34.37;31.43;;;2.10;99.90;;;;;;5039859;28;20487;-72
2022/01/05 02:47:38;;;;;;;33.23;30.83;;;2.10;99.90;;;;;;5035940;28;20487;-70
2022/01/05 02:50:06;;;;;;;33.50;30.80;;;2.00;99.90;;;;;;5037328;28;20464;-71
2022/01/05 02:52:33;;;;;;;33.30;30.40;;;2.00;99.90;;;;;;5037049;28;20525;-72
2022/01/05 02:55:00;;;;;;;31.90;29.50;;;2.00;99.90;;;;;;5042798;28;20495;-72
2022/01/05 02:57:28;;;;;;;33.27;30.93;;;2.00;99.90;;;;;;5037242;28;20986;-70
2022/01/05 02:59:56;;;;;;;35.70;32.33;;;2.00;99.90;;;;;;5042052;28;20458;-71
2022/01/05 03:02:22;;;;;;;31.70;28.70;;;1.90;99.90;;;;;;5038924;28;20463;-70
2022/01/05 03:04:49;;;;;;;32.50;29.60;;;1.90;99.90;;;;;;5040254;28;20471;-70
2022/01/05 03:07:16;;;;;;;33.83;30.53;;;1.90;99.90;;;;;;5031929;28;20918;-71
2022/01/05 03:09:44;;;;;;;34.20;30.80;;;1.80;99.90;;;;;;5040958;28;20467;-71
2022/01/05 03:12:12;;;;;;;34.67;30.93;;;1.80;99.90;;;;;;5036341;28;20474;-70
2022/01/05 03:14:40;;;;;;;34.13;30.97;;;1.80;99.90;;;;;;5041524;28;20525;-72
2022/01/05 03:17:07;;;;;;;32.60;29.50;;;1.80;99.90;;;;;;5038684;28;20773;-72
2022/01/05 03:19:34;;;;;;;33.20;30.20;;;1.80;99.90;;;;;;5033560;28;20468;-70
2022/01/05 03:22:01;;;;;;;32.37;29.70;;;1.70;99.90;;;;;;5034723;28;20466;-71
2022/01/05 03:24:28;;;;;;;31.87;29.07;;;1.70;99.90;;;;;;5038509;28;20478;-70
2022/01/05 03:26:54;;;;;;;33.03;30.13;;;1.70;99.90;;;;;;5039873;28;20567;-72
2022/01/05 03:29:22;;;;;;;31.57;29.37;;;1.70;99.90;;;;;;5040620;28;20461;-72
2022/01/05 03:31:50;;;;;;;32.77;30.47;;;1.70;99.90;;;;;;5044493;28;20462;-71
2022/01/05 03:34:19;;;;;;;32.17;29.43;;;1.60;99.90;;;;;;5043744;28;20965;-72
2022/01/05 03:36:46;;;;;;;33.07;29.80;;;1.60;99.90;;;;;;5041957;28;20506;-71
2022/01/05 03:39:13;;;;;;;33.43;30.67;;;1.60;99.90;;;;;;5039999;28;20471;-71
2022/01/05 03:41:41;;;;;;;34.37;31.30;;;1.60;99.90;;;;;;5041069;28;20486;-70
2022/01/05 03:44:08;;;;;;;32.63;30.03;;;1.60;99.90;;;;;;5035929;28;20507;-71
2022/01/05 03:46:35;;;;;;;34.13;31.37;;;1.60;99.90;;;;;;5042037;28;20484;-70
2022/01/05 03:49:04;;;;;;;33.20;30.30;;;1.60;99.90;;;;;;5045743;28;20560;-71
2022/01/05 03:51:31;;;;;;;34.13;31.27;;;1.50;99.90;;;;;;5043555;28;20459;-71
2022/01/05 03:53:58;;;;;;;33.60;30.50;;;1.50;99.90;;;;;;5041810;28;20497;-70
2022/01/05 03:56:26;;;;;;;32.07;29.57;;;1.50;99.90;;;;;;5040123;28;20467;-71
2022/01/05 03:58:52;;;;;;;31.37;28.43;;;1.50;99.90;;;;;;5037814;28;20473;-71
2022/01/05 04:01:19;;;;;;;30.80;28.00;;;1.50;99.90;;;;;;5039192;28;20463;-72
2022/01/05 04:03:46;;;;;;;28.57;26.63;;;1.50;99.90;;;;;;5042968;28;20466;-72
2022/01/05 04:06:16;;;;;;;31.23;28.83;;;1.50;99.90;;;;;;5041780;28;20475;-72
2022/01/05 04:08:42;;;;;;;33.57;28.37;;;1.50;99.90;;;;;;5041966;28;20464;-70
2022/01/05 04:11:10;;;;;;;35.43;28.27;;;1.50;99.90;;;;;;5039880;28;20494;-71
2022/01/05 04:13:37;;;;;;;36.00;28.17;;;1.50;99.90;;;;;;5041243;28;20471;-71
2022/01/05 04:16:04;;;;;;;31.83;29.23;;;1.50;99.90;;;;;;5041023;28;20475;-70
2022/01/05 04:18:32;;;;;;;33.60;30.00;;;1.50;99.90;;;;;;5038866;28;21000;-72
2022/01/05 04:20:58;;;;;;;34.00;31.03;;;1.40;99.90;;;;;;5046259;28;20466;-70
2022/01/05 04:23:27;;;;;;;31.53;28.27;;;1.40;99.90;;;;;;5043957;28;20470;-70
2022/01/05 04:25:53;;;;;;;31.07;27.97;;;1.40;99.90;;;;;;5040707;28;20464;-71
2022/01/05 04:28:20;;;;;;;32.73;29.63;;;1.40;99.90;;;;;;5044075;28;20460;-71
2022/01/05 04:30:47;;;;;;;30.57;28.10;;;1.40;99.90;;;;;;5043559;28;20464;-70
2022/01/05 04:33:14;;;;;;;32.33;29.03;;;1.40;99.90;;;;;;5045710;28;20462;-71
2022/01/05 04:35:41;;;;;;;31.40;28.10;;;1.40;99.90;;;;;;5037790;28;21036;-72
2022/01/05 04:38:08;;;;;;;35.73;28.93;;;1.40;99.90;;;;;;5043504;28;20467;-71
2022/01/05 04:40:37;;;;;;;32.30;29.40;;;1.40;99.90;;;;;;5038918;28;20949;-69
2022/01/05 04:43:04;;;;;;;29.87;27.23;;;1.40;99.90;;;;;;5044041;28;20472;-72
2022/01/05 04:45:30;;;;;;;30.80;27.70;;;1.40;99.90;;;;;;5043463;28;21128;-71
2022/01/05 04:47:57;;;;;;;32.73;28.87;;;1.40;99.90;;;;;;5040988;28;20474;-71
2022/01/05 04:50:24;;;;;;;32.67;28.90;;;1.40;99.90;;;;;;5040064;28;21034;-71
2022/01/05 04:52:52;;;;;;;32.17;28.57;;;1.30;99.90;;;;;;5040449;28;20474;-71
2022/01/05 04:55:18;;;;;;;31.43;28.47;;;1.30;99.90;;;;;;5044096;28;20501;-71
2022/01/05 04:57:47;;;;;;;33.43;30.00;;;1.30;99.90;;;;;;5035068;28;20582;-72
2022/01/05 05:00:15;;;;;;;33.33;29.90;;;1.30;99.90;;;;;;5044071;28;20486;-70
2022/01/05 05:02:41;;;;;;;30.10;27.60;;;1.30;99.90;;;;;;5040500;28;21221;-71
2022/01/05 05:05:09;;;;;;;32.33;28.30;;;1.30;99.90;;;;;;5038298;28;20468;-70
2022/01/05 05:07:36;;;;;;;34.67;31.27;;;1.20;99.90;;;;;;5035504;28;20538;-71
2022/01/05 05:10:03;;;;;;;34.03;30.20;;;1.20;99.90;;;;;;5039632;28;20466;-72
2022/01/05 05:12:30;;;;;;;31.27;28.27;;;1.20;99.90;;;;;;5037730;28;20468;-71
2022/01/05 05:14:58;;;;;;;31.13;28.63;;;1.20;99.90;;;;;;5039757;28;20495;-71
2022/01/05 05:17:25;;;;;;;30.33;27.27;;;1.20;99.90;;;;;;5033928;28;20471;-71
2022/01/05 05:19:53;;;;;;;28.47;25.90;;;1.30;99.90;;;;;;5041983;28;20463;-69
2022/01/05 05:22:20;;;;;;;26.63;24.17;;;1.30;99.90;;;;;;5042385;28;20475;-71
2022/01/05 05:24:47;;;;;;;27.20;24.40;;;1.40;99.90;;;;;;5040402;28;20458;-71
2022/01/05 05:27:14;;;;;;;28.47;25.90;;;1.40;99.90;;;;;;5035033;28;20463;-72
2022/01/05 05:29:41;;;;;;;27.67;25.10;;;1.40;99.90;;;;;;5038984;28;20458;-72
2022/01/05 05:32:10;;;;;;;33.23;23.60;;;1.40;99.90;;;;;;5039611;28;20474;-70
2022/01/05 05:34:37;;;;;;;37.00;23.50;;;1.30;99.90;;;;;;5037355;28;20484;-70
2022/01/05 05:37:04;;;;;;;26.93;22.77;;;1.30;99.90;;;;;;5037303;28;20472;-71
2022/01/05 05:39:31;;;;;;;25.27;22.97;;;1.40;99.90;;;;;;5043220;28;20468;-70
2022/01/05 05:41:58;;;;;;;24.30;22.07;;;1.40;99.90;;;;;;5040373;28;20471;-70
2022/01/05 05:44:24;;;;;;;29.60;22.70;;;1.40;99.90;;;;;;5037223;28;20500;-71
2022/01/05 05:46:52;;;;;;;25.77;23.30;;;1.40;99.90;;;;;;5040597;28;20851;-71
2022/01/05 05:49:20;;;;;;;22.70;20.70;;;1.40;99.90;;;;;;5038137;28;20472;-72
2022/01/05 05:51:47;;;;;;;24.43;21.90;;;1.40;99.90;;;;;;5037468;28;20535;-72
2022/01/05 05:54:13;;;;;;;23.00;20.40;;;1.50;99.90;;;;;;5043967;28;20530;-70
2022/01/05 05:56:40;;;;;;;22.53;20.00;;;1.50;99.90;;;;;;5034791;28;20490;-70
2022/01/05 05:59:07;;;;;;;24.63;22.00;;;1.60;99.90;;;;;;5032379;28;20959;-71
2022/01/05 06:01:34;;;;;;;29.33;20.77;;;1.60;99.90;;;;;;5042935;28;20458;-69
2022/01/05 06:04:01;;;;;;;21.40;19.80;;;1.70;99.90;;;;;;5040267;28;20468;-71
2022/01/05 06:06:29;;;;;;;24.37;19.33;;;1.60;99.90;;;;;;5034494;28;20498;-70
2022/01/05 06:08:56;;;;;;;26.20;22.60;;;1.70;99.90;;;;;;5032777;28;20451;-70
2022/01/05 06:11:23;;;;;;;23.63;18.37;;;1.70;99.90;;;;;;5038880;28;20941;-71
2022/01/05 06:13:52;;;;;;;28.90;19.83;;;1.80;99.90;;;;;;5037971;28;20817;-71
2022/01/05 06:16:19;;;;;;;20.30;18.67;;;1.80;99.90;;;;;;5041085;28;20498;-71
2022/01/05 06:18:46;;;;;;;20.50;18.30;;;1.80;99.90;;;;;;5038373;28;20495;-71
2022/01/05 06:21:13;;;;;;;21.17;19.30;;;1.80;99.90;;;;;;5042231;28;20466;-70
2022/01/05 06:23:41;;;;;;;20.20;18.30;;;1.90;99.90;;;;;;5039380;28;20990;-71
2022/01/05 06:26:08;;;;;;;19.93;18.03;;;1.90;99.90;;;;;;5037526;28;20463;-72
2022/01/05 06:28:35;;;;;;;23.87;18.27;;;1.90;99.90;;;;;;5030963;28;20925;-70
2022/01/05 06:31:02;;;;;;;28.63;19.93;;;1.90;99.90;;;;;;5036607;28;20824;-72
2022/01/05 06:33:29;;;;;;;20.23;18.10;;;2.00;99.90;;;;;;5038389;28;20832;-69
2022/01/05 06:35:56;;;;;;;23.43;17.20;;;2.00;99.90;;;;;;5042504;28;20834;-70
2022/01/05 06:38:23;;;;;;;23.43;18.30;;;2.00;99.90;;;;;;5036612;28;20480;-72
2022/01/05 06:40:51;;;;;;;18.37;16.77;;;2.00;99.90;;;;;;5036330;28;20479;-72
2022/01/05 06:43:19;;;;;;;17.73;16.37;;;2.00;99.90;;;;;;5034712;28;20474;-70
2022/01/05 06:45:46;;;;;;;17.90;16.17;;;2.00;99.90;;;;;;5036549;28;20510;-70
2022/01/05 06:48:12;;;;;;;22.93;17.47;;;2.00;99.90;;;;;;5034078;28;20559;-72
2022/01/05 06:50:39;;;;;;;20.83;17.10;;;2.10;99.90;;;;;;5036732;28;20492;-70
2022/01/05 06:53:06;;;;;;;19.17;17.33;;;2.10;99.90;;;;;;5036267;28;20466;-70
2022/01/05 06:55:34;;;;;;;22.60;16.50;;;2.10;99.90;;;;;;5032486;28;20494;-70
2022/01/05 06:58:02;;;;;;;19.37;17.93;;;2.10;99.90;;;;;;5036207;28;20460;-72
2022/01/05 07:00:31;;;;;;;29.53;17.23;;;2.10;99.90;;;;;;5033773;28;20463;-70
2022/01/05 07:02:58;;;;;;;24.27;17.10;;;2.10;99.90;;;;;;5045172;28;20556;-71
2022/01/05 07:05:25;;;;;;;16.53;15.10;;;2.10;99.90;;;;;;5046033;28;20463;-70
2022/01/05 07:07:52;;;;;;;25.60;17.30;;;2.10;99.90;;;;;;5039894;28;20470;-72
2022/01/05 07:10:19;;;;;;;18.07;16.40;;;2.20;99.90;;;;;;5040719;28;20487;-70
2022/01/05 07:12:46;;;;;;;19.60;17.80;;;2.20;99.90;;;;;;5038462;28;20978;-72
2022/01/05 07:15:15;;;;;;;18.87;16.07;;;2.20;99.90;;;;;;5046611;28;20492;-71
2022/01/05 07:17:42;;;;;;;23.47;16.67;;;2.20;99.90;;;;;;5042341;28;20528;-72
2022/01/05 07:20:11;;;;;;;17.70;16.30;;;2.20;99.90;;;;;;5037056;28;20468;-71
2022/01/05 07:22:38;;;;;;;22.37;17.80;;;2.30;99.90;;;;;;5037686;28;20483;-70
2022/01/05 07:25:08;;;;;;;20.70;17.40;;;2.30;99.90;;;;;;5043846;28;20460;-72
2022/01/05 07:27:34;;;;;;;19.67;17.67;;;2.30;99.90;;;;;;5044746;28;20508;-69
2022/01/05 07:30:01;;;;;;;19.33;17.10;;;2.40;99.90;;;;;;5042547;28;20475;-72
2022/01/05 07:32:29;;;;;;;22.73;17.10;;;2.30;99.90;;;;;;5063473;28;20466;-72
2022/01/05 07:34:57;;;;;;;21.30;17.50;;;2.40;99.90;;;;;;5059905;28;20486;-70
2022/01/05 07:37:23;;;;;;;23.40;16.67;;;2.40;99.90;;;;;;5059573;28;20463;-70
2022/01/05 07:39:51;;;;;;;23.70;16.57;;;2.40;99.90;;;;;;5059829;28;20464;-71
2022/01/05 07:42:17;;;;;;;24.87;16.23;;;2.40;99.90;;;;;;5061719;28;20466;-71
2022/01/05 07:44:45;;;;;;;20.23;16.60;;;2.40;99.90;;;;;;5056526;28;20461;-71
2022/01/05 07:47:12;;;;;;;26.57;17.80;;;2.40;99.90;;;;;;5052169;28;20670;-71
2022/01/05 07:49:40;;;;;;;20.13;16.57;;;2.40;99.90;;;;;;5050386;28;20836;-72
2022/01/05 07:52:08;;;;;;;23.87;16.93;;;2.50;99.90;;;;;;5059235;28;20463;-71
2022/01/05 07:54:36;;;;;;;20.50;16.50;;;2.50;99.90;;;;;;5052050;28;20478;-71
2022/01/05 07:57:03;;;;;;;19.00;17.13;;;2.50;99.90;;;;;;5059471;28;20519;-71
2022/01/05 07:59:30;;;;;;;20.10;18.03;;;2.50;99.90;;;;;;5058909;28;20861;-71
2022/01/05 08:01:56;;;;;;;18.00;16.60;;;2.60;99.90;;;;;;5060306;28;20462;-70
2022/01/05 08:04:24;;;;;;;18.07;16.53;;;2.60;99.90;;;;;;5057235;28;20463;-73
2022/01/05 08:06:52;;;;;;;18.60;16.83;;;2.50;99.90;;;;;;5050100;28;20471;-71
2022/01/05 08:09:19;;;;;;;18.67;17.00;;;2.60;99.90;;;;;;5058357;28;20458;-69
2022/01/05 08:11:45;;;;;;;23.03;17.93;;;2.50;99.90;;;;;;5057313;28;20462;-72
2022/01/05 08:14:13;;;;;;;21.23;16.73;;;2.60;99.90;;;;;;5056146;28;20481;-70
2022/01/05 08:16:39;;;;;;;19.40;17.53;;;2.60;99.90;;;;;;5059618;28;20533;-72
2022/01/05 08:19:06;;;;;;;21.50;18.10;;;2.60;99.90;;;;;;5054599;28;20467;-72
2022/01/05 08:21:34;;;;;;;24.00;18.50;;;2.60;99.90;;;;;;5049057;28;20463;-72
2022/01/05 08:24:02;;;;;;;19.93;17.73;;;2.60;99.90;;;;;;5056409;28;20486;-70
2022/01/05 08:26:29;;;;;;;17.80;16.17;;;2.60;99.90;;;;;;5053055;28;20466;-72
2022/01/05 08:28:56;;;;;;;22.83;17.40;;;2.60;99.90;;;;;;5056015;28;20465;-69
2022/01/05 08:31:23;;;;;;;18.27;16.77;;;2.70;99.90;;;;;;5056350;28;20464;-70
2022/01/05 08:33:50;;;;;;;20.33;18.30;;;2.70;99.90;;;;;;5056889;28;20450;-70
2022/01/05 08:36:17;;;;;;;18.10;16.40;;;2.70;99.90;;;;;;5053655;28;20487;-70
2022/01/05 08:38:44;;;;;;;28.03;17.97;;;2.70;99.90;;;;;;5048388;28;21017;-70
2022/01/05 08:41:12;;;;;;;18.70;17.10;;;2.80;99.90;;;;;;5054063;28;20470;-70
2022/01/05 08:43:39;;;;;;;18.10;16.40;;;2.80;99.90;;;;;;5057175;28;20463;-70
2022/01/05 08:46:06;;;;;;;18.13;16.30;;;2.80;99.90;;;;;;5049147;28;20568;-70
2022/01/05 08:48:33;;;;;;;17.00;15.80;;;2.90;99.90;;;;;;5057752;28;22716;-70
2022/01/05 08:51:00;;;;;;;18.03;16.43;;;2.90;99.90;;;;;;5054220;28;20474;-70
2022/01/05 08:53:27;;;;;;;22.93;17.93;;;2.90;99.90;;;;;;5045653;28;20464;-70
2022/01/05 08:55:54;;;;;;;24.33;18.47;;;2.90;99.90;;;;;;5049490;28;20488;-70
2022/01/05 08:58:23;;;;;;;18.83;17.20;;;3.00;99.90;;;;;;5050791;28;20497;-70
2022/01/05 09:00:50;;;;;;;24.67;17.27;;;3.00;99.90;;;;;;5050876;28;20452;-69
2022/01/05 09:03:18;;;;;;;19.10;17.23;;;3.00;99.90;;;;;;5050484;28;20825;-70
2022/01/05 09:05:45;;;;;;;19.00;17.43;;;3.00;99.90;;;;;;5051118;28;20546;-70
2022/01/05 09:08:12;;;;;;;19.30;17.27;;;3.10;99.90;;;;;;5050222;28;20947;-70
2022/01/05 09:10:40;;;;;;;19.57;17.80;;;3.20;99.90;;;;;;5050494;28;20452;-70
2022/01/05 09:13:09;;;;;;;18.10;16.60;;;3.20;99.90;;;;;;5050512;28;20821;-70
2022/01/05 09:15:37;;;;;;;19.63;17.73;;;3.30;99.90;;;;;;5049777;28;20860;-70
2022/01/05 09:18:04;;;;;;;23.23;17.53;;;3.30;99.90;;;;;;5051354;28;20447;-70
2022/01/05 09:20:32;;;;;;;22.63;17.70;;;3.40;99.90;;;;;;5050125;28;20769;-70
2022/01/05 09:23:00;;;;;;;22.70;18.07;;;3.50;99.90;;;;;;5050589;28;20455;-70
2022/01/05 09:25:27;;;;;;;19.57;17.57;;;3.40;99.90;;;;;;5049668;28;20557;-70
2022/01/05 09:27:54;;;;;;;20.37;18.70;;;3.50;99.90;;;;;;5049395;28;20912;-70
2022/01/05 09:30:22;;;;;;;19.57;17.83;;;3.50;99.90;;;;;;5050256;28;20476;-70
2022/01/05 09:32:50;;;;;;;20.77;18.23;;;3.40;99.90;;;;;;5050091;28;20804;-70
2022/01/05 09:35:20;;;;;;;18.23;16.73;;;3.40;99.90;;;;;;5050001;28;20452;-70
2022/01/05 09:37:55;;;;;;;21.70;19.67;;;3.40;99.90;;;;;;5048532;28;20459;-70
2022/01/05 09:43:09;;;;;;;19.83;18.17;;;3.40;99.90;;;;;;5049022;28;20447;-70
2022/01/05 09:45:38;;;;;;;22.07;17.57;;;3.50;99.90;;;;;;5047533;28;20511;-69
2022/01/05 09:48:29;;;;;;;22.03;17.50;;;3.50;99.90;;;;;;5047428;28;20487;-70
2022/01/05 09:50:59;;;;;;;20.40;18.33;;;3.60;99.90;;;;;;5046692;28;20939;-70
2022/01/05 09:53:27;;;;;;;22.80;18.07;;;3.70;99.90;;;;;;5047683;28;20460;-70
2022/01/05 09:55:54;;;;;;;19.87;18.37;;;3.70;99.90;;;;;;5052045;28;21021;-70
2022/01/05 09:58:23;;;;;;;20.40;18.60;;;3.70;99.90;;;;;;5050891;28;20479;-70
2022/01/05 10:00:51;;;;;;;20.20;18.30;;;3.70;99.90;;;;;;5056905;28;20459;-70
2022/01/05 10:03:18;;;;;;;18.70;17.27;;;3.80;99.90;;;;;;5056166;28;20849;-70
2022/01/05 10:05:47;;;;;;;20.40;18.57;;;3.70;99.90;;;;;;5052786;28;20466;-70
2022/01/05 10:08:13;;;;;;;19.47;17.77;;;3.80;99.90;;;;;;5054694;28;20969;-70
2022/01/05 10:10:41;;;;;;;19.27;17.50;;;3.80;99.90;;;;;;5050950;28;20460;-70
2022/01/05 10:13:09;;;;;;;24.97;18.63;;;3.80;99.90;;;;;;5054446;28;20479;-70
2022/01/05 10:15:36;;;;;;;20.20;18.20;;;3.70;99.90;;;;;;5049200;28;20462;-70
2022/01/05 10:18:11;;;;;;;20.87;18.20;;;3.70;99.90;;;;;;5051366;28;20475;-70
2022/01/05 10:20:38;;;;;;;20.20;18.07;;;3.70;99.90;;;;;;5051427;28;20521;-71
2022/01/05 10:23:08;;;;;;;24.40;18.57;;;3.70;99.90;;;;;;5054835;28;20520;-70
2022/01/05 10:25:36;;;;;;;24.13;17.50;;;3.80;99.90;;;;;;5052081;28;20466;-71
2022/01/05 10:28:04;;;;;;;22.10;18.83;;;3.90;99.90;;;;;;5048639;28;21069;-72
2022/01/05 10:30:36;;;;;;;18.03;16.53;;;3.90;99.90;;;;;;5051848;28;20478;-71
2022/01/05 10:33:04;;;;;;;21.37;19.20;;;4.00;99.90;;;;;;5054102;28;20561;-71
2022/01/05 10:35:32;;;;;;;19.23;17.37;;;4.00;99.90;;;;;;5052322;28;20494;-72
2022/01/05 10:38:01;;;;;;;18.37;16.97;;;4.10;99.90;;;;;;5058679;28;20537;-72
2022/01/05 10:40:32;;;;;;;19.47;17.57;;;4.20;99.90;;;;;;5060306;28;20470;-71
2022/01/05 10:42:59;;;;;;;24.00;19.10;;;4.20;99.90;;;;;;5055793;28;20852;-70
2022/01/05 10:45:39;;;;;;;19.57;17.57;;;4.20;99.90;;;;;;5060114;28;20491;-72
2022/01/05 10:48:09;;;;;;;21.83;17.73;;;4.30;99.90;;;;;;5062366;28;20458;-71
2022/01/05 10:50:36;;;;;;;18.50;16.60;;;4.30;99.90;;;;;;5059529;28;20458;-72
2022/01/05 10:53:05;;;;;;;20.13;18.00;;;4.40;99.90;;;;;;5059858;28;20485;-71
2022/01/05 10:55:39;;;;;;;18.33;17.00;;;4.50;99.90;;;;;;5053598;28;20570;-73
2022/01/05 10:58:10;;;;;;;19.33;17.43;;;4.60;99.90;;;;;;5061353;28;20556;-71
2022/01/05 11:00:40;;;;;;;22.37;20.10;;;4.80;99.90;;;;;;5060648;28;20455;-70
2022/01/05 11:03:25;;;;;;;26.73;18.90;;;4.80;99.90;;;;;;5063521;28;20466;-72
2022/01/05 11:06:11;;;;;;;23.83;18.87;;;4.70;99.90;;;;;;5056128;28;21219;-71
2022/01/05 11:08:51;;;;;;;17.90;16.40;;;4.80;99.90;;;;;;5061019;28;20823;-71
2022/01/05 11:11:35;;;;;;;20.37;18.60;;;4.80;99.90;;;;;;5058922;28;20473;-73
2022/01/05 11:14:03;;;;;;;21.10;18.90;;;4.80;99.90;;;;;;5060598;28;20463;-71
2022/01/05 11:16:30;;;;;;;20.13;18.20;;;4.90;99.90;;;;;;5060489;28;20519;-72
2022/01/05 11:19:14;;;;;;;19.33;17.90;;;4.90;99.90;;;;;;5057407;28;20584;-72
2022/01/05 11:21:56;;;;;;;18.00;16.20;;;5.00;99.90;;;;;;5055551;28;20468;-73
2022/01/05 11:24:25;;;;;;;21.47;18.67;;;4.90;99.90;;;;;;5057018;28;20525;-71
2022/01/05 11:26:54;;;;;;;19.30;17.43;;;4.90;99.90;;;;;;5061942;28;20581;-70
2022/01/05 11:29:22;;;;;;;19.23;16.47;;;4.80;99.90;;;;;;5063388;28;20577;-71
2022/01/05 11:31:49;;;;;;;19.93;18.10;;;4.90;99.90;;;;;;5059396;28;20983;-71
2022/01/05 11:34:16;;;;;;;20.70;18.87;;;4.80;99.90;;;;;;5055685;28;20532;-72
2022/01/05 11:36:43;;;;;;;22.40;20.20;;;4.70;99.90;;;;;;5057179;28;20509;-70
2022/01/05 11:39:11;;;;;;;24.33;19.90;;;4.70;99.90;;;;;;5064563;28;20604;-70
2022/01/05 11:41:42;;;;;;;22.40;20.60;;;4.50;99.90;;;;;;5060954;28;20467;-72
2022/01/05 11:44:11;;;;;;;22.60;20.60;;;4.50;99.90;;;;;;5057623;28;20473;-72
2022/01/05 11:46:42;;;;;;;28.30;19.43;;;4.50;99.90;;;;;;5057228;28;20491;-70
2022/01/05 11:49:11;;;;;;;21.20;19.20;;;4.80;99.90;;;;;;5052704;28;20464;-70
2022/01/05 11:51:51;;;;;;;20.93;18.90;;;5.10;99.90;;;;;;5055271;28;20459;-71
2022/01/05 11:54:20;;;;;;;27.10;18.80;;;5.40;99.90;;;;;;5051835;28;20516;-72
2022/01/05 11:56:49;;;;;;;18.80;17.00;;;5.30;99.90;;;;;;5053858;28;20489;-71
2022/01/05 11:59:23;;;;;;;22.60;18.67;;;5.10;99.90;;;;;;5051009;28;20841;-72
2022/01/05 12:02:01;;;;;;;20.93;18.70;;;4.80;99.90;;;;;;5053010;28;20466;-70
2022/01/05 12:04:29;;;;;;;19.10;17.23;;;4.70;99.90;;;;;;5056490;28;20456;-71
2022/01/05 12:07:10;;;;;;;18.93;17.40;;;4.70;99.90;;;;;;5058814;28;20560;-69
2022/01/05 12:09:40;;;;;;;19.23;17.37;;;4.70;99.90;;;;;;5052646;28;20495;-71
2022/01/05 12:12:27;;;;;;;18.90;17.13;;;4.90;99.90;;;;;;5059493;28;20858;-69
2022/01/05 12:14:55;;;;;;;17.70;16.40;;;4.90;99.90;;;;;;5061955;28;20490;-70
2022/01/05 12:17:23;;;;;;;19.37;17.70;;;5.00;99.90;;;;;;5056651;28;20496;-71
2022/01/05 12:20:11;;;;;;;19.23;17.27;;;5.10;99.90;;;;;;5051474;28;20517;-70
2022/01/05 12:22:38;;;;;;;19.80;17.70;;;5.30;99.90;;;;;;5054787;28;20456;-70
2022/01/05 12:25:17;;;;;;;18.17;16.77;;;5.30;99.90;;;;;;5050875;28;20459;-72
2022/01/05 12:27:59;;;;;;;23.57;18.33;;;5.20;99.90;;;;;;5050960;28;20508;-72
2022/01/05 12:30:47;;;;;;;35.93;18.47;;;5.20;99.90;;;;;;5050694;28;20466;-70
2022/01/05 12:33:18;;;;;;;25.67;18.00;;;5.30;99.90;;;;;;5046488;28;20447;-72
2022/01/05 12:35:57;;;;;;;18.47;17.07;;;5.30;99.90;;;;;;5057304;28;20553;-70
2022/01/05 12:38:48;;;;;;;19.50;17.90;;;5.10;99.90;;;;;;5046830;28;20486;-70
2022/01/05 12:41:24;;;;;;;18.73;17.13;;;5.10;99.90;;;;;;5050076;28;20471;-72
2022/01/05 12:43:53;;;;;;;26.47;17.10;;;5.20;99.90;;;;;;5052718;28;20454;-72